Time;durP1;ratioP1;P1;durP2;ratioP2;P2;SDS_P1;SDS_P2;PMS_P1;PMS_P2;Temp;Humidity;BMP_temperature;BMP_pressure;BME280_temperature;BME280_humidity;BME280_pressure;Samples;Min_cycle;Max_cycle;Signal;HPM_P1;HPM_P2
2022/07/06 00:01:51;;;;;;;5.78;1.00;;;14.70;99.90;;;;;;5057195;28;21873;-88
2022/07/06 00:04:17;;;;;;;4.68;1.00;;;14.70;99.90;;;;;;5063726;28;20041;-88
2022/07/06 00:06:43;;;;;;;8.18;1.58;;;14.60;99.90;;;;;;5048629;28;20040;-87
2022/07/06 00:09:08;;;;;;;6.93;0.98;;;14.50;99.90;;;;;;5045299;28;20486;-88
2022/07/06 00:11:34;;;;;;;5.10;0.88;;;14.60;99.90;;;;;;5092281;28;20059;-88
2022/07/06 00:14:00;;;;;;;5.93;1.17;;;14.80;99.90;;;;;;5094144;28;20768;-87
2022/07/06 00:16:26;;;;;;;6.80;1.20;;;14.50;99.90;;;;;;5043700;28;20506;-87
2022/07/06 00:18:51;;;;;;;5.53;1.38;;;14.60;99.90;;;;;;5093433;27;20760;-87
2022/07/06 00:21:17;;;;;;;2.72;0.82;;;14.60;99.90;;;;;;5059880;27;20047;-88
2022/07/06 00:23:43;;;;;;;6.88;1.35;;;14.60;99.90;;;;;;5045257;28;20041;-87
2022/07/06 00:26:09;;;;;;;5.28;1.00;;;14.60;99.90;;;;;;5078428;28;20052;-87
2022/07/06 00:28:34;;;;;;;5.05;1.10;;;14.60;99.90;;;;;;5057105;28;20051;-87
2022/07/06 00:31:00;;;;;;;5.00;0.90;;;14.60;99.90;;;;;;5055075;28;20044;-88
2022/07/06 00:33:26;;;;;;;4.47;1.60;;;14.60;99.90;;;;;;5059736;28;20048;-87
2022/07/06 00:35:52;;;;;;;4.47;1.00;;;14.60;99.90;;;;;;5065844;28;20048;-87
2022/07/06 00:38:17;;;;;;;6.28;1.02;;;14.50;99.90;;;;;;5065306;28;20069;-87
2022/07/06 00:40:43;;;;;;;6.93;0.82;;;14.50;99.90;;;;;;5064007;28;20036;-88
2022/07/06 00:43:09;;;;;;;4.75;1.15;;;14.50;99.90;;;;;;5071415;28;20040;-86
2022/07/06 00:45:34;;;;;;;5.80;0.82;;;14.60;99.90;;;;;;5054310;28;20791;-86
2022/07/06 00:48:00;;;;;;;9.38;1.02;;;14.40;99.90;;;;;;5049819;28;20742;-87
2022/07/06 00:50:28;;;;;;;6.05;1.30;;;14.40;99.90;;;;;;5091666;28;20071;-87
2022/07/06 00:53:12;;;;;;;2.50;0.70;;;14.40;99.90;;;;;;5093680;28;20499;-87
2022/07/06 00:55:41;;;;;;;4.78;1.25;;;14.40;99.90;;;;;;5051404;28;20040;-87
2022/07/06 00:58:08;;;;;;;2.50;0.98;;;14.40;99.90;;;;;;5053662;28;20058;-87
2022/07/06 01:00:35;;;;;;;4.47;1.00;;;14.30;99.90;;;;;;5052548;28;20681;-86
2022/07/06 01:03:01;;;;;;;7.20;1.33;;;14.30;99.90;;;;;;5061906;28;20051;-87
2022/07/06 01:05:27;;;;;;;4.97;1.10;;;14.30;99.90;;;;;;5061795;28;20041;-86
2022/07/06 01:07:54;;;;;;;3.85;1.20;;;14.30;99.90;;;;;;5046581;28;20044;-86
2022/07/06 01:10:21;;;;;;;5.70;1.00;;;14.30;99.90;;;;;;5054088;28;20487;-87
2022/07/06 01:12:48;;;;;;;5.70;0.98;;;14.20;99.90;;;;;;5091790;28;20049;-87
2022/07/06 01:15:16;;;;;;;4.22;1.10;;;14.20;99.90;;;;;;5051099;28;20041;-86
2022/07/06 01:17:43;;;;;;;3.00;0.95;;;14.20;99.90;;;;;;5048970;28;20052;-87
2022/07/06 01:20:22;;;;;;;5.40;1.00;;;14.40;99.90;;;;;;5053095;28;20155;-87
2022/07/06 01:22:51;;;;;;;5.45;1.00;;;14.20;99.90;;;;;;5054690;28;20495;-87
2022/07/06 01:25:17;;;;;;;5.00;1.15;;;14.20;99.90;;;;;;5055763;28;20109;-87
2022/07/06 01:27:43;;;;;;;5.13;1.23;;;14.50;99.90;;;;;;5066358;28;20044;-86
2022/07/06 01:30:12;;;;;;;3.03;1.00;;;14.20;99.90;;;;;;5090857;28;20055;-87
2022/07/06 01:32:38;;;;;;;4.50;0.93;;;14.20;99.90;;;;;;5056357;28;20049;-87
2022/07/06 01:35:09;;;;;;;3.60;1.00;;;14.60;99.90;;;;;;5045275;28;20718;-87
2022/07/06 01:37:35;;;;;;;3.92;1.08;;;14.20;99.90;;;;;;5098061;28;20050;-87
2022/07/06 01:40:04;;;;;;;7.20;1.15;;;14.20;99.90;;;;;;5056367;28;20114;-87
2022/07/06 01:42:30;;;;;;;3.95;1.02;;;14.20;99.90;;;;;;5064003;28;20139;-86
2022/07/06 01:44:56;;;;;;;3.70;1.00;;;14.10;99.90;;;;;;5057311;28;20187;-87
2022/07/06 01:47:22;;;;;;;4.88;1.10;;;14.10;99.90;;;;;;5051780;28;20163;-87
2022/07/06 01:49:47;;;;;;;7.68;1.25;;;14.10;99.90;;;;;;5061251;28;20048;-86
2022/07/06 01:52:13;;;;;;;6.78;1.00;;;14.10;99.90;;;;;;5092299;27;20063;-87
2022/07/06 01:54:39;;;;;;;5.20;1.20;;;14.10;99.90;;;;;;5060927;28;20048;-87
2022/07/06 01:57:05;;;;;;;4.57;1.08;;;14.10;99.90;;;;;;5062752;28;20048;-87
2022/07/06 01:59:30;;;;;;;3.15;1.10;;;14.10;99.90;;;;;;5060559;28;20171;-87
2022/07/06 02:01:56;;;;;;;5.00;0.88;;;14.10;99.90;;;;;;5056191;28;20040;-87
2022/07/06 02:04:22;;;;;;;5.32;0.77;;;14.10;99.90;;;;;;5050562;28;20094;-87
2022/07/06 02:06:47;;;;;;;4.68;1.35;;;14.10;99.90;;;;;;5061017;28;20044;-87
2022/07/06 02:09:13;;;;;;;3.60;0.90;;;14.10;99.90;;;;;;5062713;28;20641;-87
2022/07/06 02:11:39;;;;;;;3.45;1.15;;;14.10;99.90;;;;;;5058226;28;20044;-87
2022/07/06 02:14:04;;;;;;;4.07;0.93;;;14.10;99.90;;;;;;5059023;28;20058;-87
2022/07/06 02:16:31;;;;;;;7.72;1.15;;;14.10;99.90;;;;;;5057169;28;20418;-87
2022/07/06 02:18:58;;;;;;;4.13;1.08;;;14.20;99.90;;;;;;5060525;28;20055;-87
2022/07/06 02:21:24;;;;;;;4.03;0.90;;;14.20;99.90;;;;;;5059767;28;20131;-88
2022/07/06 02:23:50;;;;;;;5.35;0.90;;;14.20;99.90;;;;;;5052525;28;20049;-87
2022/07/06 02:26:16;;;;;;;4.15;1.08;;;14.20;99.90;;;;;;5047381;28;20164;-87
2022/07/06 02:28:41;;;;;;;4.53;1.08;;;14.20;99.90;;;;;;5054395;28;20044;-87
2022/07/06 02:31:07;;;;;;;5.78;1.20;;;14.20;99.90;;;;;;5061229;28;20059;-87
2022/07/06 02:33:33;;;;;;;3.95;0.93;;;14.20;99.90;;;;;;5087170;27;20041;-88
2022/07/06 02:35:58;;;;;;;4.00;0.85;;;14.10;99.90;;;;;;5058377;28;20507;-87
2022/07/06 02:38:24;;;;;;;3.90;1.00;;;14.10;99.90;;;;;;5095960;28;20605;-87
2022/07/06 02:40:50;;;;;;;2.78;0.80;;;14.10;99.90;;;;;;5060410;28;20135;-87
2022/07/06 02:43:15;;;;;;;4.55;1.00;;;14.10;99.90;;;;;;5056904;28;20052;-87
2022/07/06 02:45:41;;;;;;;3.15;0.98;;;14.10;99.90;;;;;;5073613;28;20036;-87
2022/07/06 02:48:06;;;;;;;7.68;1.73;;;14.10;99.90;;;;;;5061634;28;20803;-87
2022/07/06 02:50:33;;;;;;;6.35;1.00;;;14.10;99.90;;;;;;5067012;28;20036;-87
2022/07/06 02:53:00;;;;;;;3.85;0.93;;;14.10;99.90;;;;;;5064161;28;20040;-87
2022/07/06 02:55:27;;;;;;;3.55;1.10;;;14.10;99.90;;;;;;5052163;28;20459;-87
2022/07/06 02:57:53;;;;;;;4.20;1.13;;;14.10;99.90;;;;;;5050867;28;20059;-87
2022/07/06 03:00:18;;;;;;;4.55;0.90;;;14.10;99.90;;;;;;5055066;28;20048;-87
2022/07/06 03:02:44;;;;;;;7.05;1.08;;;14.10;99.90;;;;;;5055598;28;20691;-87
2022/07/06 03:05:10;;;;;;;5.05;1.05;;;14.00;99.90;;;;;;5050382;28;20045;-87
2022/07/06 03:07:35;;;;;;;7.78;1.10;;;14.00;99.90;;;;;;5058499;28;20107;-87
2022/07/06 03:10:01;;;;;;;3.20;1.15;;;13.90;99.90;;;;;;5058346;28;20048;-87
2022/07/06 03:12:27;;;;;;;5.68;1.13;;;13.90;99.90;;;;;;5061680;28;20078;-87
2022/07/06 03:14:55;;;;;;;5.40;1.08;;;13.80;99.90;;;;;;5055922;28;20262;-87
2022/07/06 03:17:21;;;;;;;5.88;1.60;;;13.80;99.90;;;;;;5050376;28;20492;-87
2022/07/06 03:19:47;;;;;;;4.47;1.15;;;13.80;99.90;;;;;;5060233;28;20408;-87
2022/07/06 03:22:13;;;;;;;5.05;1.20;;;13.70;99.90;;;;;;5055144;28;20044;-87
2022/07/06 03:24:41;;;;;;;7.28;1.25;;;13.70;99.90;;;;;;5058402;28;20045;-86
2022/07/06 03:27:08;;;;;;;4.43;1.10;;;13.70;99.90;;;;;;5059920;28;20035;-86
2022/07/06 03:29:34;;;;;;;4.63;1.23;;;13.70;99.90;;;;;;5062315;28;20039;-86
2022/07/06 03:31:59;;;;;;;3.35;1.33;;;13.60;99.90;;;;;;5059629;28;20044;-87
2022/07/06 03:34:28;;;;;;;12.10;1.55;;;13.60;99.90;;;;;;5092434;28;20032;-87
2022/07/06 03:36:53;;;;;;;4.22;0.93;;;13.50;99.90;;;;;;5053834;28;20060;-87
2022/07/06 03:39:19;;;;;;;6.07;1.20;;;13.50;99.90;;;;;;5048958;28;20049;-87
2022/07/06 03:41:45;;;;;;;5.30;1.13;;;13.50;99.90;;;;;;5076874;27;20152;-87
2022/07/06 03:44:10;;;;;;;4.25;1.13;;;13.40;99.90;;;;;;5060690;28;20044;-87
2022/07/06 03:46:36;;;;;;;3.50;0.93;;;13.30;99.90;;;;;;5052661;28;20053;-88
2022/07/06 03:49:01;;;;;;;5.43;1.10;;;13.70;99.90;;;;;;5049687;28;20065;-87
2022/07/06 03:51:27;;;;;;;7.65;1.08;;;13.30;99.90;;;;;;5081118;28;20566;-88
2022/07/06 03:53:53;;;;;;;4.55;1.05;;;13.20;99.90;;;;;;5055964;28;20133;-87
2022/07/06 03:56:27;;;;;;;4.68;1.05;;;13.20;99.90;;;;;;5059129;28;20044;-88
2022/07/06 03:58:53;;;;;;;;;;;13.10;99.90;;;;;;5055054;28;20194;-87
2022/07/06 04:01:19;;;;;;;5.05;1.65;;;13.10;99.90;;;;;;5052457;28;20064;-87
2022/07/06 04:03:44;;;;;;;5.68;1.30;;;13.10;99.90;;;;;;5056820;28;20563;-88
2022/07/06 04:06:10;;;;;;;3.28;1.10;;;13.00;99.90;;;;;;5060483;28;20048;-88
2022/07/06 04:08:36;;;;;;;4.97;1.20;;;13.00;99.90;;;;;;5052348;28;20080;-87
2022/07/06 04:11:02;;;;;;;7.47;1.40;;;12.90;99.90;;;;;;5060253;28;20645;-88
2022/07/06 04:13:31;;;;;;;5.57;1.13;;;12.90;99.90;;;;;;5059445;28;20056;-88
2022/07/06 04:15:56;;;;;;;3.17;0.90;;;12.90;99.90;;;;;;5066296;28;20039;-87
2022/07/06 04:18:22;;;;;;;7.40;1.20;;;12.80;99.90;;;;;;5060886;28;20066;-88
2022/07/06 04:20:51;;;;;;;3.97;1.00;;;13.20;99.90;;;;;;5055521;28;20072;-88
2022/07/06 04:23:18;;;;;;;3.72;0.93;;;12.80;99.90;;;;;;5092513;28;20139;-88
2022/07/06 04:25:43;;;;;;;2.72;1.00;;;12.80;99.90;;;;;;5047037;28;20108;-88
2022/07/06 04:28:09;;;;;;;6.70;1.20;;;12.80;99.90;;;;;;5057569;28;20053;-88
2022/07/06 04:30:35;;;;;;;3.70;0.90;;;13.00;99.90;;;;;;5047976;28;20036;-88
2022/07/06 04:33:01;;;;;;;6.90;1.45;;;12.80;99.90;;;;;;5053066;28;20043;-88
2022/07/06 04:35:26;;;;;;;8.10;1.30;;;12.80;99.90;;;;;;5051460;28;20621;-88
2022/07/06 04:37:52;;;;;;;5.22;1.00;;;12.80;99.90;;;;;;5083074;28;20079;-88
2022/07/06 04:40:17;;;;;;;5.18;1.30;;;12.90;99.90;;;;;;5047490;28;20037;-88
2022/07/06 04:42:43;;;;;;;7.60;1.10;;;13.00;99.90;;;;;;5078239;28;20055;-88
2022/07/06 04:45:09;;;;;;;5.50;1.10;;;13.20;99.90;;;;;;5091267;27;20691;-88
2022/07/06 04:47:35;;;;;;;8.38;1.30;;;13.20;99.90;;;;;;5054517;28;20131;-88
2022/07/06 04:50:01;;;;;;;7.70;1.27;;;13.30;99.90;;;;;;5039986;28;20055;-89
2022/07/06 04:52:27;;;;;;;5.97;0.95;;;13.40;99.90;;;;;;5052249;28;20070;-89
2022/07/06 04:54:54;;;;;;;3.20;0.73;;;13.50;99.90;;;;;;5038596;28;20048;-87
2022/07/06 04:57:20;;;;;;;4.60;0.88;;;13.60;99.90;;;;;;5043262;28;20639;-88
2022/07/06 04:59:45;;;;;;;4.40;0.80;;;13.70;99.90;;;;;;5056964;28;20047;-87
2022/07/06 05:02:11;;;;;;;8.68;1.30;;;13.80;99.90;;;;;;5053647;27;20072;-87
2022/07/06 05:04:37;;;;;;;3.25;0.60;;;14.00;99.90;;;;;;5061012;28;20076;-88
2022/07/06 05:07:03;;;;;;;4.63;1.05;;;14.00;99.90;;;;;;5052116;28;20067;-87
2022/07/06 05:09:29;;;;;;;7.13;1.02;;;14.00;99.90;;;;;;5052464;28;20063;-89
2022/07/06 05:11:54;;;;;;;3.88;0.50;;;14.00;99.90;;;;;;5050930;28;20049;-89
2022/07/06 05:14:20;;;;;;;3.78;0.70;;;14.10;99.90;;;;;;5094010;28;20072;-89
2022/07/06 05:16:46;;;;;;;4.38;0.70;;;14.10;99.90;;;;;;5049719;28;20056;-89
2022/07/06 05:19:11;;;;;;;3.78;0.65;;;14.20;99.90;;;;;;5048648;28;20103;-87
2022/07/06 05:21:37;;;;;;;5.18;0.63;;;14.20;99.90;;;;;;5049034;28;20131;-87
2022/07/06 05:24:02;;;;;;;5.30;0.60;;;14.20;99.90;;;;;;5057836;28;20041;-88
2022/07/06 05:26:28;;;;;;;4.55;0.90;;;14.30;99.90;;;;;;5084919;28;20052;-88
2022/07/06 05:28:54;;;;;;;4.20;1.02;;;14.40;99.90;;;;;;5083971;28;20073;-88
2022/07/06 05:31:19;;;;;;;4.72;0.90;;;14.40;99.90;;;;;;5085689;28;20044;-89
2022/07/06 05:33:45;;;;;;;4.75;1.10;;;14.50;99.90;;;;;;5060535;28;20036;-88
2022/07/06 05:36:10;;;;;;;3.92;0.80;;;14.50;99.90;;;;;;5060657;28;20874;-88
2022/07/06 05:38:36;;;;;;;4.13;0.90;;;14.50;99.90;;;;;;5062423;28;20056;-88
2022/07/06 05:41:01;;;;;;;2.92;0.57;;;14.60;99.90;;;;;;5053509;28;20143;-89
2022/07/06 05:43:27;;;;;;;4.32;0.80;;;14.60;99.90;;;;;;5061863;28;20063;-88
2022/07/06 05:45:53;;;;;;;5.43;0.80;;;14.60;99.90;;;;;;5052900;28;21708;-88
2022/07/06 05:51:02;;;;;;;4.63;0.70;;;14.60;99.90;;;;;;5051432;28;20056;-86
2022/07/06 05:53:28;;;;;;;5.57;0.70;;;14.60;99.90;;;;;;5050049;28;20083;-88
2022/07/06 05:55:53;;;;;;;5.00;0.88;;;14.60;99.90;;;;;;5054175;28;20086;-85
2022/07/06 05:58:19;;;;;;;6.22;0.90;;;14.50;99.90;;;;;;5042011;28;20586;-88
2022/07/06 06:00:45;;;;;;;5.22;0.80;;;14.40;99.90;;;;;;5054365;28;20735;-87
2022/07/06 06:03:11;;;;;;;5.10;0.50;;;14.40;99.90;;;;;;5055212;28;20644;-87
2022/07/06 06:05:37;;;;;;;5.53;0.85;;;14.30;99.90;;;;;;5045816;28;20037;-88
2022/07/06 06:08:02;;;;;;;4.40;0.82;;;14.30;99.90;;;;;;5054472;27;20094;-85
2022/07/06 06:10:28;;;;;;;2.42;0.50;;;14.30;99.90;;;;;;5055312;28;20134;-84
2022/07/06 06:12:54;;;;;;;3.15;0.43;;;14.40;99.90;;;;;;5088366;28;20055;-84
2022/07/06 06:15:19;;;;;;;4.22;0.57;;;14.50;99.90;;;;;;5087923;28;20041;-83
2022/07/06 06:17:45;;;;;;;5.63;0.68;;;14.60;99.90;;;;;;5049527;28;20150;-85
2022/07/06 06:20:13;;;;;;;2.15;0.55;;;14.70;99.90;;;;;;5053278;28;20078;-86
2022/07/06 06:22:45;;;;;;;1.58;0.50;;;14.80;99.90;;;;;;5076152;28;20062;-81
2022/07/06 06:25:11;;;;;;;3.30;0.55;;;15.00;99.90;;;;;;5056586;28;20484;-85
2022/07/06 06:27:37;;;;;;;3.97;0.50;;;14.80;99.90;;;;;;5087749;27;20045;-85
2022/07/06 06:30:03;;;;;;;2.80;0.40;;;14.90;99.90;;;;;;5039620;28;20044;-85
2022/07/06 06:32:29;;;;;;;6.80;1.10;;;14.80;99.90;;;;;;5050138;28;20045;-88
2022/07/06 06:34:54;;;;;;;3.03;0.50;;;14.80;99.90;;;;;;5043881;28;20696;-90
2022/07/06 06:37:20;;;;;;;4.57;0.50;;;14.80;99.90;;;;;;5050556;28;20053;-87
2022/07/06 06:39:46;;;;;;;5.43;0.93;;;14.90;99.90;;;;;;5084048;27;20045;-87
2022/07/06 06:42:14;;;;;;;4.25;0.43;;;14.90;99.90;;;;;;5055940;27;20048;-87
2022/07/06 06:44:39;;;;;;;3.38;0.55;;;14.90;99.90;;;;;;5054943;28;20113;-88
2022/07/06 06:47:05;;;;;;;3.03;0.60;;;15.00;99.90;;;;;;5090292;27;20964;-87
2022/07/06 06:49:31;;;;;;;6.10;0.57;;;15.00;99.90;;;;;;5052082;28;20040;-89
2022/07/06 06:51:56;;;;;;;1.95;0.43;;;15.00;99.90;;;;;;5046889;28;20068;-87
2022/07/06 06:54:22;;;;;;;4.07;0.60;;;15.10;99.90;;;;;;5079451;27;20040;-89
2022/07/06 06:56:47;;;;;;;4.85;0.90;;;15.10;99.90;;;;;;5039667;28;20057;-88
2022/07/06 06:59:13;;;;;;;3.22;0.60;;;15.10;99.90;;;;;;5049797;28;20058;-87
2022/07/06 07:01:39;;;;;;;2.58;0.68;;;15.10;99.90;;;;;;5050720;28;20044;-87
2022/07/06 07:04:05;;;;;;;6.45;0.90;;;15.10;99.90;;;;;;5057233;28;20059;-88
2022/07/06 07:06:31;;;;;;;2.38;0.60;;;15.10;99.90;;;;;;5044652;27;20048;-86
2022/07/06 07:08:57;;;;;;;3.20;0.70;;;15.20;99.90;;;;;;5081431;28;20071;-88
2022/07/06 07:11:23;;;;;;;4.00;0.82;;;15.30;99.90;;;;;;5056344;28;20680;-88
2022/07/06 07:13:49;;;;;;;6.32;0.60;;;15.30;99.90;;;;;;5051898;28;20180;-88
2022/07/06 07:16:15;;;;;;;4.63;0.50;;;15.60;99.90;;;;;;5055402;28;20087;-85
2022/07/06 07:18:40;;;;;;;3.75;0.70;;;16.10;99.90;;;;;;5046420;28;20744;-87
2022/07/06 07:21:06;;;;;;;2.78;0.77;;;15.60;99.90;;;;;;5051466;28;20098;-86
2022/07/06 07:23:32;;;;;;;3.33;0.70;;;15.80;99.90;;;;;;5046913;28;20059;-86
2022/07/06 07:25:57;;;;;;;5.07;0.82;;;16.10;99.90;;;;;;5082468;28;20067;-87
2022/07/06 07:28:23;;;;;;;2.45;0.55;;;16.50;99.90;;;;;;5080846;28;20037;-85
2022/07/06 07:30:50;;;;;;;7.05;0.88;;;16.90;99.90;;;;;;5080711;28;20090;-86
2022/07/06 07:33:15;;;;;;;3.33;0.60;;;17.40;99.90;;;;;;5078537;28;20492;-86
2022/07/06 07:35:41;;;;;;;4.05;0.57;;;17.80;99.90;;;;;;5049191;28;20075;-90
2022/07/06 07:38:06;;;;;;;2.67;0.57;;;18.20;99.90;;;;;;5051221;28;20040;-85
2022/07/06 07:40:33;;;;;;;7.95;0.70;;;18.30;99.90;;;;;;5051089;28;20498;-87
2022/07/06 07:42:58;;;;;;;3.55;1.15;;;18.30;99.90;;;;;;5059208;28;20052;-86
2022/07/06 07:45:24;;;;;;;5.43;0.57;;;18.30;99.90;;;;;;5053092;28;20488;-87
2022/07/06 07:47:50;;;;;;;2.75;0.52;;;18.00;99.90;;;;;;5076649;28;20467;-85
2022/07/06 07:50:15;;;;;;;3.47;0.85;;;17.80;99.90;;;;;;5081029;28;20053;-88
2022/07/06 07:52:41;;;;;;;5.10;0.60;;;17.60;99.90;;;;;;5085233;28;20063;-87
2022/07/06 07:55:07;;;;;;;4.13;0.50;;;17.60;99.90;;;;;;5081153;28;20076;-86
2022/07/06 07:57:33;;;;;;;4.95;0.70;;;17.50;99.90;;;;;;5066963;28;20428;-88
2022/07/06 07:59:58;;;;;;;4.82;0.50;;;17.50;99.90;;;;;;5087121;28;20040;-88
2022/07/06 08:02:25;;;;;;;6.95;0.77;;;17.50;99.90;;;;;;5041646;28;20155;-88
2022/07/06 08:04:50;;;;;;;5.22;0.80;;;17.70;99.90;;;;;;5051113;28;20105;-86
2022/07/06 08:07:16;;;;;;;3.17;0.50;;;17.90;99.90;;;;;;5079703;28;20056;-87
2022/07/06 08:09:42;;;;;;;5.47;0.80;;;18.20;99.90;;;;;;5057809;28;20082;-88
2022/07/06 08:12:08;;;;;;;3.95;0.47;;;18.60;99.90;;;;;;5038509;28;20167;-88
2022/07/06 08:14:34;;;;;;;6.75;0.60;;;18.70;99.90;;;;;;5043946;28;20044;-88
2022/07/06 08:16:59;;;;;;;3.40;0.60;;;19.00;99.90;;;;;;5058170;28;20049;-89
2022/07/06 08:19:25;;;;;;;8.45;0.82;;;19.00;99.90;;;;;;5049516;28;20052;-87
2022/07/06 08:21:51;;;;;;;4.30;0.70;;;18.80;99.90;;;;;;5057873;28;20044;-88
2022/07/06 08:24:16;;;;;;;3.42;0.47;;;18.60;99.90;;;;;;5049355;28;20139;-86
2022/07/06 08:26:42;;;;;;;2.75;0.40;;;18.30;99.90;;;;;;5084873;27;20102;-87
2022/07/06 08:29:07;;;;;;;4.32;0.70;;;18.10;99.90;;;;;;5057002;27;20186;-87
2022/07/06 08:31:34;;;;;;;4.57;0.50;;;17.90;99.90;;;;;;5052239;28;20041;-86
2022/07/06 08:34:00;;;;;;;1.67;0.30;;;17.90;99.90;;;;;;5070971;28;20048;-85
2022/07/06 08:36:26;;;;;;;4.80;0.45;;;17.90;99.90;;;;;;5049171;28;20057;-87
2022/07/06 08:38:51;;;;;;;3.25;0.38;;;18.00;99.90;;;;;;5083712;28;20053;-88
2022/07/06 08:41:18;;;;;;;2.28;1.00;;;18.10;99.90;;;;;;5055326;28;20048;-87
2022/07/06 08:43:43;;;;;;;5.10;0.68;;;18.30;99.90;;;;;;5057201;28;20798;-88
2022/07/06 08:46:12;;;;;;;1.50;0.25;;;18.50;99.90;;;;;;5057551;28;20040;-87
2022/07/06 08:48:40;;;;;;;2.80;0.40;;;18.60;99.90;;;;;;5050541;27;20086;-87
2022/07/06 08:51:05;;;;;;;2.38;0.30;;;18.60;99.90;;;;;;5054421;28;20044;-89
2022/07/06 08:53:31;;;;;;;1.27;0.30;;;18.60;99.90;;;;;;5056076;28;20126;-88
2022/07/06 08:55:57;;;;;;;4.07;0.40;;;18.50;99.90;;;;;;5037819;28;20052;-88
2022/07/06 08:58:25;;;;;;;3.38;0.30;;;18.60;99.90;;;;;;5043768;28;20044;-88
2022/07/06 09:00:50;;;;;;;1.50;0.32;;;18.60;99.90;;;;;;5058860;28;20044;-87
2022/07/06 09:03:16;;;;;;;3.17;0.40;;;18.60;99.90;;;;;;5056953;28;20130;-88
2022/07/06 09:05:45;;;;;;;3.30;0.30;;;18.80;99.90;;;;;;5058195;28;20086;-88
2022/07/06 09:08:11;;;;;;;3.72;0.65;;;18.90;99.90;;;;;;5058154;28;20044;-87
2022/07/06 09:10:37;;;;;;;5.72;0.40;;;18.90;99.90;;;;;;5054380;28;20646;-88
2022/07/06 09:13:05;;;;;;;4.38;0.40;;;19.10;99.90;;;;;;5058221;28;20049;-87
2022/07/06 09:15:32;;;;;;;5.82;0.85;;;19.30;99.90;;;;;;5058359;28;20496;-88
2022/07/06 09:17:58;;;;;;;5.03;0.50;;;19.50;99.90;;;;;;5055137;28;20037;-88
2022/07/06 09:20:24;;;;;;;2.20;0.43;;;19.70;99.90;;;;;;5047224;28;20094;-87
2022/07/06 09:22:50;;;;;;;3.45;0.40;;;19.90;99.90;;;;;;5053300;28;20048;-87
2022/07/06 09:25:16;;;;;;;4.82;0.60;;;20.30;99.90;;;;;;5058013;28;20052;-91
2022/07/06 09:27:49;;;;;;;3.88;0.50;;;19.60;99.90;;;;;;5053546;28;20044;-88
2022/07/06 09:30:16;;;;;;;4.55;0.40;;;19.30;99.90;;;;;;5058457;28;20051;-88
2022/07/06 09:32:44;;;;;;;4.63;0.60;;;19.10;99.90;;;;;;5046479;28;20045;-89
2022/07/06 09:35:26;;;;;;;2.50;0.40;;;18.90;99.90;;;;;;5042681;28;20053;-88
2022/07/06 09:38:14;;;;;;;4.50;0.40;;;18.70;99.90;;;;;;5104319;28;20052;-89
2022/07/06 09:40:44;;;;;;;3.53;0.50;;;18.50;99.90;;;;;;5052600;28;20051;-88
2022/07/06 09:43:19;;;;;;;2.70;0.40;;;18.40;99.90;;;;;;5040902;28;20061;-87
2022/07/06 09:45:46;;;;;;;;;;;18.40;99.90;;;;;;5037745;28;20052;-89
2022/07/06 09:48:15;;;;;;;2.65;0.45;;;18.40;99.90;;;;;;5043262;28;20545;-88
2022/07/06 09:50:47;;;;;;;6.10;0.45;;;18.40;99.90;;;;;;5052010;28;20040;-87
2022/07/06 09:53:15;;;;;;;2.53;0.30;;;18.50;99.90;;;;;;5061425;28;20585;-89
2022/07/06 09:55:45;;;;;;;4.20;0.50;;;18.70;99.90;;;;;;5062944;28;20052;-87
2022/07/06 09:58:11;;;;;;;4.40;0.50;;;19.10;99.90;;;;;;5087745;27;20048;-87
2022/07/06 10:00:38;;;;;;;3.03;0.60;;;19.40;99.90;;;;;;5061486;28;20091;-87
2022/07/06 10:03:05;;;;;;;5.47;0.40;;;19.50;99.90;;;;;;5092504;28;20048;-89
2022/07/06 10:05:31;;;;;;;4.65;0.43;;;19.70;99.90;;;;;;5060804;28;20044;-88
2022/07/06 10:08:00;;;;;;;3.17;0.40;;;19.70;99.90;;;;;;5059419;28;20060;-87
2022/07/06 10:10:28;;;;;;;2.65;0.55;;;19.80;99.90;;;;;;5060330;28;20048;-86
2022/07/06 10:12:56;;;;;;;2.83;0.40;;;20.00;99.90;;;;;;5055447;28;20126;-85
2022/07/06 10:15:24;;;;;;;3.33;0.50;;;20.00;99.90;;;;;;5048661;28;20048;-87
2022/07/06 10:17:51;;;;;;;2.30;0.55;;;20.10;99.90;;;;;;5049758;28;20048;-89
2022/07/06 10:20:19;;;;;;;3.50;0.50;;;20.10;99.90;;;;;;5043710;28;20046;-90
2022/07/06 10:22:46;;;;;;;2.47;0.68;;;20.20;99.90;;;;;;5040773;28;20137;-88
2022/07/06 10:25:15;;;;;;;2.80;0.40;;;20.30;99.90;;;;;;5046309;28;20045;-89
2022/07/06 10:27:42;;;;;;;3.40;0.40;;;20.40;99.90;;;;;;5089053;28;20052;-88
2022/07/06 10:30:08;;;;;;;3.17;0.40;;;20.40;99.90;;;;;;5059119;28;20725;-89
2022/07/06 10:32:35;;;;;;;2.67;0.35;;;20.50;99.90;;;;;;5056175;28;20767;-88
2022/07/06 10:35:01;;;;;;;5.22;0.60;;;20.50;99.90;;;;;;5059694;28;20076;-88
2022/07/06 10:37:28;;;;;;;3.40;0.40;;;20.60;99.90;;;;;;5044781;28;20136;-88
2022/07/06 10:42:38;;;;;;;;;;;20.90;99.90;;;;;;5080803;28;20056;-87
2022/07/06 10:45:03;;;;;;;3.15;0.43;;;20.90;99.50;;;;;;5056961;28;19924;-87
2022/07/06 10:47:29;;;;;;;2.97;0.43;;;21.00;99.90;;;;;;5055778;28;20053;-88
2022/07/06 10:50:00;;;;;;;1.60;0.43;;;21.20;99.90;;;;;;5042890;28;20056;-88
2022/07/06 10:52:52;;;;;;;1.48;0.40;;;21.40;98.80;;;;;;5056809;28;20511;-87
2022/07/06 10:55:31;;;;;;;3.08;0.40;;;21.30;98.30;;;;;;5053497;28;20095;-87
2022/07/06 10:57:57;;;;;;;2.47;0.30;;;21.20;98.10;;;;;;5045651;28;20587;-87
2022/07/06 11:00:22;;;;;;;3.15;0.40;;;20.90;98.50;;;;;;5076764;28;20043;-85
2022/07/06 11:02:48;;;;;;;5.25;0.55;;;20.80;99.10;;;;;;5048223;28;21113;-86
2022/07/06 11:05:39;;;;;;;6.85;0.57;;;20.80;98.70;;;;;;5060660;28;20914;-88
2022/07/06 11:08:05;;;;;;;4.38;0.95;;;20.90;97.30;;;;;;5048024;28;20095;-88
2022/07/06 11:10:47;;;;;;;4.00;0.55;;;21.00;98.50;;;;;;5063662;28;20077;-88
2022/07/06 11:13:28;;;;;;;4.78;0.70;;;21.00;98.30;;;;;;5056899;28;20098;-88
2022/07/06 11:16:01;;;;;;;3.85;0.60;;;20.90;98.90;;;;;;5056633;28;20055;-89
2022/07/06 11:18:27;;;;;;;3.20;0.80;;;20.80;98.50;;;;;;5058870;28;20523;-87
2022/07/06 11:21:22;;;;;;;4.07;0.57;;;20.90;98.90;;;;;;5089065;27;20032;-88
2022/07/06 11:23:49;;;;;;;4.07;0.73;;;21.10;99.30;;;;;;5059480;28;20123;-88
2022/07/06 11:26:16;;;;;;;2.78;0.40;;;21.40;98.70;;;;;;5054337;28;20043;-89
2022/07/06 11:28:47;;;;;;;4.68;0.45;;;21.80;98.50;;;;;;5056267;28;20054;-89
2022/07/06 11:31:12;;;;;;;4.38;0.60;;;22.00;97.60;;;;;;5049838;28;20052;-88
2022/07/06 11:33:38;;;;;;;5.40;0.57;;;22.00;97.30;;;;;;5053254;28;20783;-83
2022/07/06 11:36:15;;;;;;;4.28;0.68;;;22.10;97.30;;;;;;5038196;28;20060;-83
2022/07/06 11:38:41;;;;;;;3.90;0.65;;;22.10;97.20;;;;;;5071856;28;20128;-84
2022/07/06 11:41:07;;;;;;;3.13;0.50;;;22.00;97.50;;;;;;5043554;28;20049;-87
2022/07/06 11:43:33;;;;;;;3.83;0.52;;;21.90;96.40;;;;;;5075624;28;20514;-88
2022/07/06 11:45:58;;;;;;;2.53;0.43;;;21.80;96.60;;;;;;5044591;28;20048;-86
2022/07/06 11:48:24;;;;;;;4.57;0.80;;;21.60;97.50;;;;;;5052420;28;20059;-84
2022/07/06 11:51:03;;;;;;;2.90;0.60;;;21.50;97.80;;;;;;5059573;28;20049;-88
2022/07/06 11:53:28;;;;;;;3.83;0.50;;;21.50;97.70;;;;;;5058228;28;20055;-88
2022/07/06 11:55:54;;;;;;;4.22;0.60;;;21.60;97.90;;;;;;5058278;28;20133;-86
2022/07/06 11:58:22;;;;;;;2.53;0.50;;;21.50;97.80;;;;;;5055341;28;20048;-83
2022/07/06 12:01:07;;;;;;;3.88;0.50;;;21.50;97.80;;;;;;5057601;28;20036;-86
2022/07/06 12:03:34;;;;;;;3.03;0.52;;;21.60;97.20;;;;;;5057235;28;20343;-85
2022/07/06 12:06:04;;;;;;;2.45;0.40;;;21.70;97.00;;;;;;5056778;28;20044;-86
2022/07/06 12:08:30;;;;;;;2.80;0.40;;;21.90;96.80;;;;;;5040544;28;20601;-85
2022/07/06 12:10:56;;;;;;;2.38;0.50;;;21.90;96.60;;;;;;5038475;28;20045;-85
2022/07/06 12:13:23;;;;;;;5.63;0.50;;;21.70;96.60;;;;;;5039113;28;20055;-87
2022/07/06 12:15:49;;;;;;;2.25;0.40;;;21.70;96.80;;;;;;5054282;28;20145;-85
2022/07/06 12:18:14;;;;;;;3.03;0.50;;;21.80;96.60;;;;;;5048110;27;20157;-86
2022/07/06 12:20:40;;;;;;;4.45;0.60;;;21.90;96.10;;;;;;5052883;28;20061;-86
2022/07/06 12:23:07;;;;;;;5.72;0.68;;;21.80;96.00;;;;;;5057298;28;20045;-85
2022/07/06 12:25:35;;;;;;;1.92;0.40;;;21.90;96.20;;;;;;5051603;28;20055;-85
2022/07/06 12:28:00;;;;;;;2.33;0.40;;;22.00;95.60;;;;;;5049077;28;20036;-85
2022/07/06 12:30:29;;;;;;;6.13;0.50;;;22.10;95.20;;;;;;5055289;28;20102;-86
2022/07/06 12:33:14;;;;;;;2.28;0.40;;;22.30;94.90;;;;;;5049969;28;20067;-86
2022/07/06 12:35:40;;;;;;;2.38;0.50;;;22.40;93.10;;;;;;5049893;28;20064;-83
2022/07/06 12:38:06;;;;;;;3.03;0.43;;;22.40;94.60;;;;;;5044254;28;20155;-87
2022/07/06 12:40:32;;;;;;;3.03;0.43;;;22.40;94.40;;;;;;5041950;28;20179;-86
2022/07/06 12:42:57;;;;;;;2.33;0.38;;;22.40;94.20;;;;;;5043225;28;20045;-87
2022/07/06 12:45:27;;;;;;;3.90;0.50;;;22.30;94.70;;;;;;5058177;28;20111;-86
2022/07/06 12:48:01;;;;;;;2.78;0.40;;;22.30;94.70;;;;;;5049716;28;20059;-87
2022/07/06 12:50:46;;;;;;;2.33;0.45;;;22.30;94.70;;;;;;5047802;28;20093;-85
2022/07/06 12:53:26;;;;;;;2.00;0.40;;;22.50;94.90;;;;;;5091640;28;20098;-88